sensor_id;sensor_type;location;lat;lon;timestamp;P1;durP1;ratioP1;P2;durP2;ratioP2
7446;SDS011;3765;47.962;7.952;2022-12-10T00:01:42;58.93;;;36.87;;
7446;SDS011;3765;47.962;7.952;2022-12-10T00:04:12;58.80;;;37.30;;
7446;SDS011;3765;47.962;7.952;2022-12-10T00:06:41;66.83;;;40.83;;
7446;SDS011;3765;47.962;7.952;2022-12-10T00:09:12;54.80;;;36.80;;
7446;SDS011;3765;47.962;7.952;2022-12-10T00:11:42;62.67;;;37.67;;
7446;SDS011;3765;47.962;7.952;2022-12-10T00:14:11;58.90;;;36.30;;
7446;SDS011;3765;47.962;7.952;2022-12-10T00:16:40;55.80;;;35.73;;
7446;SDS011;3765;47.962;7.952;2022-12-10T00:19:09;54.43;;;35.83;;
7446;SDS011;3765;47.962;7.952;2022-12-10T00:21:39;54.60;;;35.10;;
7446;SDS011;3765;47.962;7.952;2022-12-10T00:24:09;60.23;;;36.00;;
7446;SDS011;3765;47.962;7.952;2022-12-10T00:26:38;64.10;;;36.40;;
7446;SDS011;3765;47.962;7.952;2022-12-10T00:29:07;55.13;;;35.43;;
7446;SDS011;3765;47.962;7.952;2022-12-10T00:31:37;53.63;;;36.60;;
7446;SDS011;3765;47.962;7.952;2022-12-10T00:34:07;58.20;;;36.70;;
7446;SDS011;3765;47.962;7.952;2022-12-10T00:36:39;53.30;;;35.20;;
7446;SDS011;3765;47.962;7.952;2022-12-10T00:39:09;54.13;;;35.97;;
7446;SDS011;3765;47.962;7.952;2022-12-10T00:41:39;59.93;;;35.73;;
7446;SDS011;3765;47.962;7.952;2022-12-10T00:44:08;57.27;;;35.57;;
7446;SDS011;3765;47.962;7.952;2022-12-10T00:46:36;55.43;;;36.17;;
7446;SDS011;3765;47.962;7.952;2022-12-10T00:49:04;58.13;;;36.20;;
7446;SDS011;3765;47.962;7.952;2022-12-10T00:51:32;62.90;;;37.10;;
7446;SDS011;3765;47.962;7.952;2022-12-10T00:54:06;57.37;;;36.00;;
7446;SDS011;3765;47.962;7.952;2022-12-10T00:56:35;61.10;;;37.90;;
7446;SDS011;3765;47.962;7.952;2022-12-10T00:59:03;52.70;;;36.60;;
7446;SDS011;3765;47.962;7.952;2022-12-10T01:01:32;64.20;;;36.17;;
7446;SDS011;3765;47.962;7.952;2022-12-10T01:04:03;59.37;;;38.10;;
7446;SDS011;3765;47.962;7.952;2022-12-10T01:06:34;57.40;;;36.73;;
7446;SDS011;3765;47.962;7.952;2022-12-10T01:09:06;55.43;;;35.70;;
7446;SDS011;3765;47.962;7.952;2022-12-10T01:11:37;56.10;;;36.77;;
7446;SDS011;3765;47.962;7.952;2022-12-10T01:14:07;53.93;;;36.07;;
7446;SDS011;3765;47.962;7.952;2022-12-10T01:16:38;57.30;;;36.30;;
7446;SDS011;3765;47.962;7.952;2022-12-10T01:19:06;55.10;;;36.60;;
7446;SDS011;3765;47.962;7.952;2022-12-10T01:21:35;59.83;;;35.93;;
7446;SDS011;3765;47.962;7.952;2022-12-10T01:24:04;56.30;;;33.87;;
7446;SDS011;3765;47.962;7.952;2022-12-10T01:26:34;57.03;;;36.17;;
7446;SDS011;3765;47.962;7.952;2022-12-10T01:29:03;58.37;;;37.00;;
7446;SDS011;3765;47.962;7.952;2022-12-10T01:31:32;53.53;;;35.00;;
7446;SDS011;3765;47.962;7.952;2022-12-10T01:34:02;56.27;;;36.67;;
7446;SDS011;3765;47.962;7.952;2022-12-10T01:36:33;55.60;;;35.33;;
7446;SDS011;3765;47.962;7.952;2022-12-10T01:39:03;56.37;;;35.03;;
7446;SDS011;3765;47.962;7.952;2022-12-10T01:41:36;53.17;;;33.80;;
7446;SDS011;3765;47.962;7.952;2022-12-10T01:47:07;56.10;;;34.93;;
7446;SDS011;3765;47.962;7.952;2022-12-10T01:49:37;59.47;;;36.90;;
7446;SDS011;3765;47.962;7.952;2022-12-10T01:52:07;55.90;;;36.53;;
7446;SDS011;3765;47.962;7.952;2022-12-10T01:54:41;54.13;;;35.53;;
7446;SDS011;3765;47.962;7.952;2022-12-10T01:57:11;61.40;;;36.20;;
7446;SDS011;3765;47.962;7.952;2022-12-10T01:59:42;55.60;;;34.87;;
7446;SDS011;3765;47.962;7.952;2022-12-10T02:02:14;55.60;;;34.90;;
7446;SDS011;3765;47.962;7.952;2022-12-10T02:04:54;56.97;;;35.10;;
7446;SDS011;3765;47.962;7.952;2022-12-10T02:07:34;54.00;;;35.00;;
7446;SDS011;3765;47.962;7.952;2022-12-10T02:10:24;60.90;;;38.90;;
7446;SDS011;3765;47.962;7.952;2022-12-10T02:13:04;54.30;;;37.40;;
7446;SDS011;3765;47.962;7.952;2022-12-10T02:15:39;58.00;;;37.97;;
7446;SDS011;3765;47.962;7.952;2022-12-10T02:18:11;57.20;;;37.50;;
7446;SDS011;3765;47.962;7.952;2022-12-10T02:20:45;51.03;;;35.20;;
7446;SDS011;3765;47.962;7.952;2022-12-10T02:23:18;58.20;;;36.70;;
7446;SDS011;3765;47.962;7.952;2022-12-10T02:25:53;53.67;;;35.30;;
7446;SDS011;3765;47.962;7.952;2022-12-10T02:28:27;51.37;;;34.60;;
7446;SDS011;3765;47.962;7.952;2022-12-10T02:31:01;51.87;;;33.50;;
7446;SDS011;3765;47.962;7.952;2022-12-10T02:33:31;48.87;;;34.50;;
7446;SDS011;3765;47.962;7.952;2022-12-10T02:36:01;55.03;;;35.40;;
7446;SDS011;3765;47.962;7.952;2022-12-10T02:38:31;59.67;;;37.47;;
7446;SDS011;3765;47.962;7.952;2022-12-10T02:41:02;64.03;;;36.50;;
7446;SDS011;3765;47.962;7.952;2022-12-10T02:43:35;52.37;;;35.30;;
7446;SDS011;3765;47.962;7.952;2022-12-10T02:46:05;64.50;;;38.57;;
7446;SDS011;3765;47.962;7.952;2022-12-10T02:48:34;60.63;;;38.27;;
7446;SDS011;3765;47.962;7.952;2022-12-10T02:51:03;57.17;;;37.53;;
7446;SDS011;3765;47.962;7.952;2022-12-10T02:53:31;62.37;;;38.80;;
7446;SDS011;3765;47.962;7.952;2022-12-10T02:56:05;61.00;;;36.60;;
7446;SDS011;3765;47.962;7.952;2022-12-10T02:58:43;53.43;;;35.47;;
7446;SDS011;3765;47.962;7.952;2022-12-10T03:01:19;53.13;;;35.00;;
7446;SDS011;3765;47.962;7.952;2022-12-10T03:03:59;58.33;;;36.50;;
7446;SDS011;3765;47.962;7.952;2022-12-10T03:06:31;57.73;;;35.47;;
7446;SDS011;3765;47.962;7.952;2022-12-10T03:09:04;54.53;;;35.97;;
7446;SDS011;3765;47.962;7.952;2022-12-10T03:11:35;57.73;;;34.27;;
7446;SDS011;3765;47.962;7.952;2022-12-10T03:14:06;55.20;;;32.60;;
7446;SDS011;3765;47.962;7.952;2022-12-10T03:16:42;50.83;;;32.80;;
7446;SDS011;3765;47.962;7.952;2022-12-10T03:19:13;46.97;;;33.47;;
7446;SDS011;3765;47.962;7.952;2022-12-10T03:21:45;55.00;;;35.17;;
7446;SDS011;3765;47.962;7.952;2022-12-10T03:24:16;51.47;;;35.20;;
7446;SDS011;3765;47.962;7.952;2022-12-10T03:26:45;54.80;;;34.60;;
7446;SDS011;3765;47.962;7.952;2022-12-10T03:29:17;58.03;;;37.00;;
7446;SDS011;3765;47.962;7.952;2022-12-10T03:31:51;55.30;;;35.93;;
7446;SDS011;3765;47.962;7.952;2022-12-10T03:34:20;60.20;;;37.73;;
7446;SDS011;3765;47.962;7.952;2022-12-10T03:36:50;65.77;;;38.40;;
7446;SDS011;3765;47.962;7.952;2022-12-10T03:39:18;65.97;;;37.83;;
7446;SDS011;3765;47.962;7.952;2022-12-10T03:41:46;56.83;;;37.87;;
7446;SDS011;3765;47.962;7.952;2022-12-10T03:44:20;61.13;;;39.20;;
7446;SDS011;3765;47.962;7.952;2022-12-10T03:46:56;59.57;;;38.20;;
7446;SDS011;3765;47.962;7.952;2022-12-10T03:49:25;58.87;;;36.67;;
7446;SDS011;3765;47.962;7.952;2022-12-10T03:51:53;62.73;;;36.37;;
7446;SDS011;3765;47.962;7.952;2022-12-10T03:54:21;55.57;;;36.20;;
7446;SDS011;3765;47.962;7.952;2022-12-10T03:56:49;51.73;;;34.67;;
7446;SDS011;3765;47.962;7.952;2022-12-10T03:59:18;57.80;;;33.97;;
7446;SDS011;3765;47.962;7.952;2022-12-10T04:01:46;57.23;;;34.97;;
7446;SDS011;3765;47.962;7.952;2022-12-10T04:04:15;51.87;;;33.83;;
7446;SDS011;3765;47.962;7.952;2022-12-10T04:06:44;57.93;;;35.30;;
7446;SDS011;3765;47.962;7.952;2022-12-10T04:09:13;56.50;;;34.67;;
7446;SDS011;3765;47.962;7.952;2022-12-10T04:11:42;53.70;;;34.43;;
7446;SDS011;3765;47.962;7.952;2022-12-10T04:14:11;51.40;;;34.80;;
7446;SDS011;3765;47.962;7.952;2022-12-10T04:16:58;56.43;;;36.80;;
7446;SDS011;3765;47.962;7.952;2022-12-10T04:19:27;57.73;;;34.13;;
7446;SDS011;3765;47.962;7.952;2022-12-10T04:21:56;56.07;;;36.07;;
7446;SDS011;3765;47.962;7.952;2022-12-10T04:24:41;59.47;;;34.90;;
7446;SDS011;3765;47.962;7.952;2022-12-10T04:27:28;61.73;;;38.37;;
7446;SDS011;3765;47.962;7.952;2022-12-10T04:29:58;62.70;;;37.50;;
7446;SDS011;3765;47.962;7.952;2022-12-10T04:32:27;56.17;;;38.27;;
7446;SDS011;3765;47.962;7.952;2022-12-10T04:34:58;75.83;;;40.33;;
7446;SDS011;3765;47.962;7.952;2022-12-10T04:37:26;56.67;;;37.77;;
7446;SDS011;3765;47.962;7.952;2022-12-10T04:39:55;63.47;;;38.07;;
7446;SDS011;3765;47.962;7.952;2022-12-10T04:42:23;58.23;;;37.83;;
7446;SDS011;3765;47.962;7.952;2022-12-10T04:44:51;60.53;;;39.10;;
7446;SDS011;3765;47.962;7.952;2022-12-10T04:47:20;55.70;;;37.03;;
7446;SDS011;3765;47.962;7.952;2022-12-10T04:49:48;63.27;;;40.30;;
7446;SDS011;3765;47.962;7.952;2022-12-10T04:52:18;62.87;;;39.37;;
7446;SDS011;3765;47.962;7.952;2022-12-10T04:54:46;62.40;;;38.70;;
7446;SDS011;3765;47.962;7.952;2022-12-10T04:57:15;57.37;;;36.67;;
7446;SDS011;3765;47.962;7.952;2022-12-10T04:59:43;65.23;;;39.17;;
7446;SDS011;3765;47.962;7.952;2022-12-10T05:02:11;67.47;;;39.83;;
7446;SDS011;3765;47.962;7.952;2022-12-10T05:04:39;63.23;;;39.97;;
7446;SDS011;3765;47.962;7.952;2022-12-10T05:07:07;65.23;;;40.20;;
7446;SDS011;3765;47.962;7.952;2022-12-10T05:09:38;62.83;;;39.87;;
7446;SDS011;3765;47.962;7.952;2022-12-10T05:12:06;57.53;;;38.20;;
7446;SDS011;3765;47.962;7.952;2022-12-10T05:14:34;64.83;;;40.20;;
7446;SDS011;3765;47.962;7.952;2022-12-10T05:17:03;60.17;;;36.43;;
7446;SDS011;3765;47.962;7.952;2022-12-10T05:19:31;56.63;;;37.03;;
7446;SDS011;3765;47.962;7.952;2022-12-10T05:21:59;53.93;;;37.10;;
7446;SDS011;3765;47.962;7.952;2022-12-10T05:24:46;59.57;;;38.10;;
7446;SDS011;3765;47.962;7.952;2022-12-10T05:27:14;57.20;;;35.73;;
7446;SDS011;3765;47.962;7.952;2022-12-10T05:29:42;50.90;;;35.50;;
7446;SDS011;3765;47.962;7.952;2022-12-10T05:32:10;51.37;;;34.80;;
7446;SDS011;3765;47.962;7.952;2022-12-10T05:34:38;53.17;;;34.40;;
7446;SDS011;3765;47.962;7.952;2022-12-10T05:37:06;56.50;;;35.07;;
7446;SDS011;3765;47.962;7.952;2022-12-10T05:39:35;50.77;;;33.27;;
7446;SDS011;3765;47.962;7.952;2022-12-10T05:42:04;49.47;;;33.03;;
7446;SDS011;3765;47.962;7.952;2022-12-10T05:44:32;49.17;;;33.27;;
7446;SDS011;3765;47.962;7.952;2022-12-10T05:47:01;49.27;;;32.60;;
7446;SDS011;3765;47.962;7.952;2022-12-10T05:49:29;53.93;;;31.57;;
7446;SDS011;3765;47.962;7.952;2022-12-10T05:51:57;64.07;;;33.03;;
7446;SDS011;3765;47.962;7.952;2022-12-10T05:54:25;51.70;;;34.40;;
7446;SDS011;3765;47.962;7.952;2022-12-10T05:56:53;49.77;;;33.43;;
7446;SDS011;3765;47.962;7.952;2022-12-10T05:59:23;59.23;;;36.33;;
7446;SDS011;3765;47.962;7.952;2022-12-10T06:01:51;48.77;;;33.37;;
7446;SDS011;3765;47.962;7.952;2022-12-10T06:04:20;57.93;;;33.27;;
7446;SDS011;3765;47.962;7.952;2022-12-10T06:06:48;48.73;;;33.57;;
7446;SDS011;3765;47.962;7.952;2022-12-10T06:09:16;51.17;;;31.33;;
7446;SDS011;3765;47.962;7.952;2022-12-10T06:11:44;43.80;;;30.63;;
7446;SDS011;3765;47.962;7.952;2022-12-10T06:14:12;47.87;;;30.10;;
7446;SDS011;3765;47.962;7.952;2022-12-10T06:16:42;45.23;;;31.33;;
7446;SDS011;3765;47.962;7.952;2022-12-10T06:19:10;49.73;;;31.97;;
7446;SDS011;3765;47.962;7.952;2022-12-10T06:21:38;51.07;;;30.97;;
7446;SDS011;3765;47.962;7.952;2022-12-10T06:24:06;45.27;;;32.10;;
7446;SDS011;3765;47.962;7.952;2022-12-10T06:26:34;51.73;;;35.10;;
7446;SDS011;3765;47.962;7.952;2022-12-10T06:29:03;44.60;;;31.67;;
7446;SDS011;3765;47.962;7.952;2022-12-10T06:31:32;45.03;;;31.13;;
7446;SDS011;3765;47.962;7.952;2022-12-10T06:34:02;46.47;;;30.53;;
7446;SDS011;3765;47.962;7.952;2022-12-10T06:36:30;45.10;;;31.40;;
7446;SDS011;3765;47.962;7.952;2022-12-10T06:38:58;44.50;;;30.70;;
7446;SDS011;3765;47.962;7.952;2022-12-10T06:41:26;41.83;;;29.40;;
7446;SDS011;3765;47.962;7.952;2022-12-10T06:43:55;45.30;;;31.50;;
7446;SDS011;3765;47.962;7.952;2022-12-10T06:46:25;45.80;;;31.00;;
7446;SDS011;3765;47.962;7.952;2022-12-10T06:48:54;39.30;;;29.97;;
7446;SDS011;3765;47.962;7.952;2022-12-10T06:51:23;38.23;;;27.40;;
7446;SDS011;3765;47.962;7.952;2022-12-10T06:53:52;43.87;;;30.83;;
7446;SDS011;3765;47.962;7.952;2022-12-10T06:56:20;36.37;;;26.93;;
7446;SDS011;3765;47.962;7.952;2022-12-10T06:58:48;38.00;;;27.47;;
7446;SDS011;3765;47.962;7.952;2022-12-10T07:01:17;40.30;;;27.20;;
7446;SDS011;3765;47.962;7.952;2022-12-10T07:03:47;35.30;;;25.73;;
7446;SDS011;3765;47.962;7.952;2022-12-10T07:06:17;40.50;;;27.87;;
7446;SDS011;3765;47.962;7.952;2022-12-10T07:08:47;40.70;;;28.40;;
7446;SDS011;3765;47.962;7.952;2022-12-10T07:11:16;38.07;;;27.10;;
7446;SDS011;3765;47.962;7.952;2022-12-10T07:13:46;36.60;;;26.13;;
7446;SDS011;3765;47.962;7.952;2022-12-10T07:16:14;34.33;;;26.10;;
7446;SDS011;3765;47.962;7.952;2022-12-10T07:18:44;33.40;;;24.53;;
7446;SDS011;3765;47.962;7.952;2022-12-10T07:21:19;38.80;;;26.80;;
7446;SDS011;3765;47.962;7.952;2022-12-10T07:23:50;37.20;;;25.57;;
7446;SDS011;3765;47.962;7.952;2022-12-10T07:26:19;38.70;;;26.80;;
7446;SDS011;3765;47.962;7.952;2022-12-10T07:28:48;29.43;;;22.23;;
7446;SDS011;3765;47.962;7.952;2022-12-10T07:31:19;35.33;;;25.00;;
7446;SDS011;3765;47.962;7.952;2022-12-10T07:33:49;32.13;;;21.67;;
7446;SDS011;3765;47.962;7.952;2022-12-10T07:36:18;27.93;;;20.67;;
7446;SDS011;3765;47.962;7.952;2022-12-10T07:38:50;29.13;;;21.77;;
7446;SDS011;3765;47.962;7.952;2022-12-10T07:41:19;29.30;;;21.27;;
7446;SDS011;3765;47.962;7.952;2022-12-10T07:43:48;31.50;;;22.30;;
7446;SDS011;3765;47.962;7.952;2022-12-10T07:46:18;39.37;;;25.67;;
7446;SDS011;3765;47.962;7.952;2022-12-10T07:48:48;25.80;;;19.10;;
7446;SDS011;3765;47.962;7.952;2022-12-10T07:51:17;30.03;;;20.90;;
7446;SDS011;3765;47.962;7.952;2022-12-10T07:53:47;27.70;;;19.07;;
7446;SDS011;3765;47.962;7.952;2022-12-10T07:56:17;27.10;;;19.87;;
7446;SDS011;3765;47.962;7.952;2022-12-10T07:58:45;28.50;;;20.13;;
7446;SDS011;3765;47.962;7.952;2022-12-10T08:01:14;28.63;;;20.63;;
7446;SDS011;3765;47.962;7.952;2022-12-10T08:03:44;29.57;;;21.17;;
7446;SDS011;3765;47.962;7.952;2022-12-10T08:06:13;29.53;;;23.33;;
7446;SDS011;3765;47.962;7.952;2022-12-10T08:08:43;26.93;;;19.40;;
7446;SDS011;3765;47.962;7.952;2022-12-10T08:11:13;28.77;;;20.73;;
7446;SDS011;3765;47.962;7.952;2022-12-10T08:13:43;29.43;;;21.73;;
7446;SDS011;3765;47.962;7.952;2022-12-10T08:16:20;36.77;;;20.87;;
7446;SDS011;3765;47.962;7.952;2022-12-10T08:18:52;32.80;;;22.60;;
7446;SDS011;3765;47.962;7.952;2022-12-10T08:21:21;30.20;;;21.33;;
7446;SDS011;3765;47.962;7.952;2022-12-10T08:23:51;31.77;;;22.83;;
7446;SDS011;3765;47.962;7.952;2022-12-10T08:26:22;32.77;;;23.27;;
7446;SDS011;3765;47.962;7.952;2022-12-10T08:28:53;30.40;;;21.50;;
7446;SDS011;3765;47.962;7.952;2022-12-10T08:31:22;34.43;;;23.50;;
7446;SDS011;3765;47.962;7.952;2022-12-10T08:33:52;38.50;;;26.33;;
7446;SDS011;3765;47.962;7.952;2022-12-10T08:36:21;36.57;;;26.90;;
7446;SDS011;3765;47.962;7.952;2022-12-10T08:38:52;39.37;;;26.40;;
7446;SDS011;3765;47.962;7.952;2022-12-10T08:41:22;32.90;;;23.40;;
7446;SDS011;3765;47.962;7.952;2022-12-10T08:43:51;32.53;;;22.50;;
7446;SDS011;3765;47.962;7.952;2022-12-10T08:46:21;31.17;;;22.00;;
7446;SDS011;3765;47.962;7.952;2022-12-10T08:48:51;31.33;;;21.03;;
7446;SDS011;3765;47.962;7.952;2022-12-10T08:51:20;30.50;;;21.63;;
7446;SDS011;3765;47.962;7.952;2022-12-10T08:53:49;28.50;;;19.57;;
7446;SDS011;3765;47.962;7.952;2022-12-10T08:56:17;30.43;;;20.20;;
7446;SDS011;3765;47.962;7.952;2022-12-10T08:58:45;34.90;;;24.50;;
7446;SDS011;3765;47.962;7.952;2022-12-10T09:01:16;29.17;;;18.63;;
7446;SDS011;3765;47.962;7.952;2022-12-10T09:03:47;28.03;;;17.43;;
7446;SDS011;3765;47.962;7.952;2022-12-10T09:06:17;30.90;;;19.17;;
7446;SDS011;3765;47.962;7.952;2022-12-10T09:08:47;41.30;;;25.27;;
7446;SDS011;3765;47.962;7.952;2022-12-10T09:11:19;25.23;;;16.90;;
7446;SDS011;3765;47.962;7.952;2022-12-10T09:13:49;24.77;;;15.83;;
7446;SDS011;3765;47.962;7.952;2022-12-10T09:16:19;26.20;;;16.60;;
7446;SDS011;3765;47.962;7.952;2022-12-10T09:18:48;24.10;;;17.10;;
7446;SDS011;3765;47.962;7.952;2022-12-10T09:21:16;26.90;;;17.70;;
7446;SDS011;3765;47.962;7.952;2022-12-10T09:23:44;27.30;;;18.13;;
7446;SDS011;3765;47.962;7.952;2022-12-10T09:26:13;30.87;;;19.43;;
7446;SDS011;3765;47.962;7.952;2022-12-10T09:28:43;31.50;;;20.90;;
7446;SDS011;3765;47.962;7.952;2022-12-10T09:31:11;28.80;;;20.30;;
7446;SDS011;3765;47.962;7.952;2022-12-10T09:33:48;40.70;;;30.70;;
7446;SDS011;3765;47.962;7.952;2022-12-10T09:36:17;33.40;;;22.30;;
7446;SDS011;3765;47.962;7.952;2022-12-10T09:38:46;32.30;;;22.50;;
7446;SDS011;3765;47.962;7.952;2022-12-10T09:41:20;35.53;;;23.83;;
7446;SDS011;3765;47.962;7.952;2022-12-10T09:44:17;32.90;;;22.00;;
7446;SDS011;3765;47.962;7.952;2022-12-10T09:46:55;31.83;;;23.07;;
7446;SDS011;3765;47.962;7.952;2022-12-10T09:49:30;34.43;;;22.87;;
7446;SDS011;3765;47.962;7.952;2022-12-10T09:52:09;38.63;;;25.30;;
7446;SDS011;3765;47.962;7.952;2022-12-10T09:54:42;42.80;;;28.27;;
7446;SDS011;3765;47.962;7.952;2022-12-10T09:57:16;42.77;;;29.90;;
7446;SDS011;3765;47.962;7.952;2022-12-10T09:59:49;45.20;;;30.60;;
7446;SDS011;3765;47.962;7.952;2022-12-10T10:02:20;52.40;;;33.13;;
7446;SDS011;3765;47.962;7.952;2022-12-10T10:04:57;52.20;;;32.23;;
7446;SDS011;3765;47.962;7.952;2022-12-10T10:07:29;55.17;;;33.50;;
7446;SDS011;3765;47.962;7.952;2022-12-10T10:10:00;51.10;;;31.27;;
7446;SDS011;3765;47.962;7.952;2022-12-10T10:12:30;50.90;;;31.33;;
7446;SDS011;3765;47.962;7.952;2022-12-10T10:15:09;51.30;;;32.37;;
7446;SDS011;3765;47.962;7.952;2022-12-10T10:17:40;56.27;;;34.00;;
7446;SDS011;3765;47.962;7.952;2022-12-10T10:20:13;61.70;;;36.50;;
7446;SDS011;3765;47.962;7.952;2022-12-10T10:22:42;61.20;;;39.17;;
7446;SDS011;3765;47.962;7.952;2022-12-10T10:25:12;68.40;;;40.83;;
7446;SDS011;3765;47.962;7.952;2022-12-10T10:27:45;60.37;;;35.87;;
7446;SDS011;3765;47.962;7.952;2022-12-10T10:30:15;67.70;;;40.03;;
7446;SDS011;3765;47.962;7.952;2022-12-10T10:32:45;67.23;;;37.07;;
7446;SDS011;3765;47.962;7.952;2022-12-10T10:35:26;62.57;;;37.47;;
7446;SDS011;3765;47.962;7.952;2022-12-10T10:38:01;63.97;;;37.07;;
7446;SDS011;3765;47.962;7.952;2022-12-10T10:40:40;63.43;;;36.67;;
7446;SDS011;3765;47.962;7.952;2022-12-10T10:43:13;53.83;;;33.00;;
7446;SDS011;3765;47.962;7.952;2022-12-10T10:45:49;50.47;;;29.80;;
7446;SDS011;3765;47.962;7.952;2022-12-10T10:48:20;51.00;;;30.80;;
7446;SDS011;3765;47.962;7.952;2022-12-10T10:50:52;52.03;;;31.10;;
7446;SDS011;3765;47.962;7.952;2022-12-10T10:53:27;56.33;;;33.47;;
7446;SDS011;3765;47.962;7.952;2022-12-10T10:56:04;53.27;;;33.10;;
7446;SDS011;3765;47.962;7.952;2022-12-10T10:58:35;61.33;;;34.90;;
7446;SDS011;3765;47.962;7.952;2022-12-10T11:01:04;59.10;;;34.17;;
7446;SDS011;3765;47.962;7.952;2022-12-10T11:03:35;53.90;;;33.03;;
7446;SDS011;3765;47.962;7.952;2022-12-10T11:06:06;60.77;;;35.50;;
7446;SDS011;3765;47.962;7.952;2022-12-10T11:08:37;50.13;;;31.07;;
7446;SDS011;3765;47.962;7.952;2022-12-10T11:11:09;48.67;;;29.33;;
7446;SDS011;3765;47.962;7.952;2022-12-10T11:13:39;49.90;;;29.23;;
7446;SDS011;3765;47.962;7.952;2022-12-10T11:16:10;51.40;;;30.03;;
7446;SDS011;3765;47.962;7.952;2022-12-10T11:18:40;42.30;;;28.20;;
7446;SDS011;3765;47.962;7.952;2022-12-10T11:21:17;44.23;;;27.80;;
7446;SDS011;3765;47.962;7.952;2022-12-10T11:23:48;44.83;;;28.30;;
7446;SDS011;3765;47.962;7.952;2022-12-10T11:29:17;45.70;;;28.10;;
7446;SDS011;3765;47.962;7.952;2022-12-10T11:31:59;52.30;;;28.83;;
7446;SDS011;3765;47.962;7.952;2022-12-10T11:34:44;47.33;;;29.10;;
7446;SDS011;3765;47.962;7.952;2022-12-10T11:37:25;42.67;;;27.67;;
7446;SDS011;3765;47.962;7.952;2022-12-10T11:45:57;43.80;;;28.60;;
7446;SDS011;3765;47.962;7.952;2022-12-10T11:48:41;44.00;;;28.20;;
7446;SDS011;3765;47.962;7.952;2022-12-10T11:51:19;47.47;;;29.10;;
7446;SDS011;3765;47.962;7.952;2022-12-10T11:54:03;49.13;;;29.37;;
7446;SDS011;3765;47.962;7.952;2022-12-10T11:56:40;44.30;;;30.20;;
7446;SDS011;3765;47.962;7.952;2022-12-10T11:59:16;46.20;;;30.17;;
7446;SDS011;3765;47.962;7.952;2022-12-10T12:02:33;41.33;;;27.80;;
7446;SDS011;3765;47.962;7.952;2022-12-10T12:05:26;39.43;;;25.43;;
7446;SDS011;3765;47.962;7.952;2022-12-10T12:08:06;36.80;;;25.00;;
7446;SDS011;3765;47.962;7.952;2022-12-10T12:10:48;33.13;;;23.87;;
7446;SDS011;3765;47.962;7.952;2022-12-10T12:13:25;37.10;;;24.80;;
7446;SDS011;3765;47.962;7.952;2022-12-10T12:15:59;35.63;;;23.80;;
7446;SDS011;3765;47.962;7.952;2022-12-10T12:18:36;34.63;;;23.10;;
7446;SDS011;3765;47.962;7.952;2022-12-10T12:21:11;34.23;;;23.30;;
7446;SDS011;3765;47.962;7.952;2022-12-10T12:23:43;31.80;;;21.73;;
7446;SDS011;3765;47.962;7.952;2022-12-10T12:26:19;32.43;;;22.20;;
7446;SDS011;3765;47.962;7.952;2022-12-10T12:28:54;33.43;;;23.07;;
7446;SDS011;3765;47.962;7.952;2022-12-10T12:31:30;34.40;;;22.30;;
7446;SDS011;3765;47.962;7.952;2022-12-10T12:34:03;32.90;;;21.67;;
7446;SDS011;3765;47.962;7.952;2022-12-10T12:36:40;34.43;;;23.07;;
7446;SDS011;3765;47.962;7.952;2022-12-10T12:39:13;34.10;;;22.83;;
7446;SDS011;3765;47.962;7.952;2022-12-10T12:41:55;35.50;;;22.80;;
7446;SDS011;3765;47.962;7.952;2022-12-10T12:44:29;35.53;;;23.07;;
7446;SDS011;3765;47.962;7.952;2022-12-10T12:47:05;34.43;;;24.03;;
7446;SDS011;3765;47.962;7.952;2022-12-10T12:49:54;41.20;;;26.23;;
7446;SDS011;3765;47.962;7.952;2022-12-10T12:52:26;44.20;;;26.03;;
7446;SDS011;3765;47.962;7.952;2022-12-10T12:55:02;42.60;;;26.20;;
7446;SDS011;3765;47.962;7.952;2022-12-10T12:57:39;45.13;;;27.93;;
7446;SDS011;3765;47.962;7.952;2022-12-10T13:00:14;39.43;;;27.07;;
7446;SDS011;3765;47.962;7.952;2022-12-10T13:02:47;45.60;;;28.23;;
7446;SDS011;3765;47.962;7.952;2022-12-10T13:05:25;48.53;;;30.80;;
7446;SDS011;3765;47.962;7.952;2022-12-10T13:08:15;40.93;;;27.30;;
7446;SDS011;3765;47.962;7.952;2022-12-10T13:10:53;39.47;;;27.20;;
7446;SDS011;3765;47.962;7.952;2022-12-10T13:13:28;41.53;;;28.13;;
7446;SDS011;3765;47.962;7.952;2022-12-10T13:21:58;46.17;;;29.70;;
7446;SDS011;3765;47.962;7.952;2022-12-10T13:27:29;43.67;;;28.93;;
7446;SDS011;3765;47.962;7.952;2022-12-10T13:30:03;45.70;;;30.70;;
7446;SDS011;3765;47.962;7.952;2022-12-10T13:32:52;44.00;;;29.50;;
7446;SDS011;3765;47.962;7.952;2022-12-10T13:35:29;39.97;;;27.43;;
7446;SDS011;3765;47.962;7.952;2022-12-10T13:38:15;43.57;;;27.97;;
7446;SDS011;3765;47.962;7.952;2022-12-10T13:40:56;44.37;;;29.63;;
7446;SDS011;3765;47.962;7.952;2022-12-10T13:43:54;41.50;;;28.10;;
7446;SDS011;3765;47.962;7.952;2022-12-10T13:46:52;45.33;;;30.77;;
7446;SDS011;3765;47.962;7.952;2022-12-10T13:49:22;42.90;;;29.37;;
7446;SDS011;3765;47.962;7.952;2022-12-10T13:51:54;40.73;;;27.20;;
7446;SDS011;3765;47.962;7.952;2022-12-10T13:54:38;47.23;;;30.10;;
7446;SDS011;3765;47.962;7.952;2022-12-10T13:57:30;41.43;;;27.73;;
7446;SDS011;3765;47.962;7.952;2022-12-10T14:00:13;38.90;;;26.47;;
7446;SDS011;3765;47.962;7.952;2022-12-10T14:02:59;45.50;;;27.17;;
7446;SDS011;3765;47.962;7.952;2022-12-10T14:05:39;41.27;;;28.80;;
7446;SDS011;3765;47.962;7.952;2022-12-10T14:08:19;39.07;;;27.00;;
7446;SDS011;3765;47.962;7.952;2022-12-10T14:10:53;43.17;;;27.17;;
7446;SDS011;3765;47.962;7.952;2022-12-10T14:13:25;40.20;;;26.80;;
7446;SDS011;3765;47.962;7.952;2022-12-10T14:16:01;39.43;;;27.63;;
7446;SDS011;3765;47.962;7.952;2022-12-10T14:18:33;39.87;;;28.00;;
7446;SDS011;3765;47.962;7.952;2022-12-10T14:21:03;40.63;;;28.00;;
7446;SDS011;3765;47.962;7.952;2022-12-10T14:23:34;42.00;;;29.37;;
7446;SDS011;3765;47.962;7.952;2022-12-10T14:26:13;37.27;;;25.20;;
7446;SDS011;3765;47.962;7.952;2022-12-10T14:28:44;38.33;;;27.17;;
7446;SDS011;3765;47.962;7.952;2022-12-10T14:31:14;42.03;;;29.90;;
7446;SDS011;3765;47.962;7.952;2022-12-10T14:33:46;42.97;;;28.40;;
7446;SDS011;3765;47.962;7.952;2022-12-10T14:36:20;43.73;;;28.73;;
7446;SDS011;3765;47.962;7.952;2022-12-10T14:38:54;41.87;;;27.60;;
7446;SDS011;3765;47.962;7.952;2022-12-10T14:41:23;39.03;;;28.10;;
7446;SDS011;3765;47.962;7.952;2022-12-10T14:43:53;43.60;;;29.37;;
7446;SDS011;3765;47.962;7.952;2022-12-10T14:46:22;43.87;;;30.10;;
7446;SDS011;3765;47.962;7.952;2022-12-10T14:48:54;45.73;;;31.00;;
7446;SDS011;3765;47.962;7.952;2022-12-10T14:51:23;48.77;;;33.63;;
7446;SDS011;3765;47.962;7.952;2022-12-10T14:53:53;53.47;;;33.83;;
7446;SDS011;3765;47.962;7.952;2022-12-10T14:56:23;47.77;;;32.30;;
7446;SDS011;3765;47.962;7.952;2022-12-10T14:58:59;44.67;;;31.17;;
7446;SDS011;3765;47.962;7.952;2022-12-10T15:01:32;50.70;;;33.40;;
7446;SDS011;3765;47.962;7.952;2022-12-10T15:04:04;50.17;;;33.80;;
7446;SDS011;3765;47.962;7.952;2022-12-10T15:06:39;45.37;;;31.73;;
7446;SDS011;3765;47.962;7.952;2022-12-10T15:09:11;43.60;;;30.40;;
7446;SDS011;3765;47.962;7.952;2022-12-10T15:11:43;55.53;;;33.87;;
7446;SDS011;3765;47.962;7.952;2022-12-10T15:14:15;48.17;;;34.30;;
7446;SDS011;3765;47.962;7.952;2022-12-10T15:16:45;50.13;;;34.43;;
7446;SDS011;3765;47.962;7.952;2022-12-10T15:19:18;52.90;;;34.10;;
7446;SDS011;3765;47.962;7.952;2022-12-10T15:21:48;52.07;;;34.50;;
7446;SDS011;3765;47.962;7.952;2022-12-10T15:24:19;49.97;;;34.10;;
7446;SDS011;3765;47.962;7.952;2022-12-10T15:26:49;51.63;;;34.77;;
7446;SDS011;3765;47.962;7.952;2022-12-10T15:29:29;45.00;;;32.10;;
7446;SDS011;3765;47.962;7.952;2022-12-10T15:32:01;51.50;;;34.40;;
7446;SDS011;3765;47.962;7.952;2022-12-10T15:34:42;44.90;;;31.40;;
7446;SDS011;3765;47.962;7.952;2022-12-10T15:37:15;46.77;;;32.10;;
7446;SDS011;3765;47.962;7.952;2022-12-10T15:39:49;49.90;;;32.53;;